M I D A S
Marine Information and Data Acquisition System
Tripno 1249 of the Zeeleeuw from 2007-04-20 07:17:21 to 2007-04-20 08:00:09
Back to CruiseResearch ActivitiesStationsMapUnderway DataData graphs

EquipmentUnitsComment
TimeDGPSUTC
LatitudeDGPSDM.mWGS84
LongitudeDGPSDM.mWGS84
HeadingGyrodeg 
SOGDGPSknotsSpeed over ground
COGDGPSdegCourse over ground
DepthEcho soundermeters200 kHz
Missing or incorrect values are displayed as -999
Navigation data collected by the RV Zeeleeuw from 2007-04-20 07:18:22 to 2007-04-20 12:17:08
Time Latitude Longitude Heading SOG COG Depth
2007-04-20 07:19:28 51°13.6 2°56.069 119 3.4 297 -999
2007-04-20 07:20:28 51°13.627 2°55.985 122.5 3.8 299 -999
2007-04-20 07:21:28 51°13.659 2°55.895 122 3.9 300 -999
2007-04-20 07:22:28 51°13.683 2°55.817 111 2.8 290 8.8
2007-04-20 07:23:27 51°13.693 2°55.761 103 1.5 284 11
2007-04-20 07:24:28 51°13.697 2°55.751 77.1 0.8 56 11.7
2007-04-20 07:25:27 51°13.706 2°55.761 35.8 0.8 228 12.5
2007-04-20 07:26:28 51°13.692 2°55.741 14.8 0.4 307 -999
2007-04-20 07:27:28 51°13.715 2°55.719 336.7 3.3 329 10.6
2007-04-20 07:28:27 51°13.791 2°55.663 340.4 5.9 336 9.6
2007-04-20 07:29:27 51°13.882 2°55.597 339.5 6.4 334 9.1
2007-04-20 07:30:27 51°14.002 2°55.509 342 9.3 338 -999
2007-04-20 07:31:28 51°14.149 2°55.4 337.9 10 332 -999
2007-04-20 07:32:27 51°14.275 2°55.229 318.7 10.4 312 9.7
2007-04-20 07:33:27 51°14.374 2°54.998 300.6 10.9 291 9
2007-04-20 07:34:27 51°14.4 2°54.704 277.9 11.7 271 9.8
2007-04-20 07:35:27 51°14.365 2°54.399 256.4 12 248 8
2007-04-20 07:36:28 51°14.271 2°54.11 246.5 12.1 242 7.4
2007-04-20 07:37:27 51°14.168 2°53.836 240.8 12.3 237 7.5
2007-04-20 07:38:28 51°14.082 2°53.595 251.6 8.2 248 7.9
2007-04-20 07:39:27 51°14.037 2°53.437 246.9 5.8 239 8
2007-04-20 07:40:28 51°13.984 2°53.322 235.1 5 231 8.1
2007-04-20 07:41:27 51°13.934 2°53.225 232.9 4.6 232 8.2
2007-04-20 07:42:27 51°13.887 2°53.131 236.5 4.5 233 8.2
2007-04-20 07:43:27 51°13.844 2°53.036 239.2 4.4 235 8.3
2007-04-20 07:44:27 51°13.802 2°52.943 236.8 4.3 234 8.3
2007-04-20 07:45:28 51°13.758 2°52.851 236.4 4.2 231 8.3
2007-04-20 07:46:27 51°13.715 2°52.764 234.3 4.3 231 8.3
2007-04-20 07:47:27 51°13.669 2°52.678 230.3 4.3 229 8.3
2007-04-20 07:48:27 51°13.626 2°52.575 256 5.5 255 8.3
2007-04-20 07:49:27 51°13.65 2°52.451 336.2 4.3 320 8.5
2007-04-20 07:50:27 51°13.709 2°52.493 63.1 6.8 60 8.7
2007-04-20 07:51:27 51°13.795 2°52.718 63.1 11.1 58 8.2
2007-04-20 07:52:28 51°13.898 2°52.979 64 11.5 61 8.3
2007-04-20 07:53:27 51°13.99 2°53.242 64.8 11.5 62 7.8
2007-04-20 07:54:28 51°14.071 2°53.525 72 11.5 69 7.5
2007-04-20 07:55:27 51°14.164 2°53.788 63.6 11.7 61 7.3
2007-04-20 07:56:28 51°14.257 2°54.064 66.7 11.5 61 7.1
2007-04-20 07:57:27 51°14.359 2°54.317 70.4 11.7 72 7.2
2007-04-20 07:58:27 51°14.398 2°54.626 87.6 12.6 87 9
2007-04-20 07:59:28 51°14.374 2°54.955 100.7 12.2 104 7.8
2007-04-20 08:00:27 51°14.287 2°55.227 131.9 10.1 130 9.6
2007-04-20 08:01:28 51°14.18 2°55.367 147.7 7.4 144 10.2
2007-04-20 08:02:27 51°14.087 2°55.475 146.9 6.8 142 10.2
2007-04-20 08:03:28 51°14.013 2°55.58 139.1 4.8 138 9.5
2007-04-20 08:04:27 51°13.948 2°55.597 202.4 3.5 205 4.7
2007-04-20 08:05:28 51°13.942 2°55.602 253 1.9 65 -999
2007-04-20 08:06:28 51°13.95 2°55.624 272.1 0.9 284 -999
2007-04-20 08:07:28 51°13.96 2°55.577 298 2.6 295 4.9
2007-04-20 08:08:27 51°13.982 2°55.519 300.4 2.6 301 9.6
2007-04-20 08:09:27 51°14 2°55.47 306.7 1.6 303 8.4
2007-04-20 08:10:28 51°14.006 2°55.457 328 0.1 286 4.9
2007-04-20 08:11:27 51°14.006 2°55.454 331 0.1 250 4.5
2007-04-20 08:12:28 51°14.007 2°55.453 336.3 0.2 327 -999
2007-04-20 08:13:28 51°14.006 2°55.452 342.3 0.1 1 -999
2007-04-20 08:14:28 51°14.006 2°55.451 348.8 0.1 150 -999
2007-04-20 08:15:28 51°14.005 2°55.45 351.2 0.1 192 -999
2007-04-20 08:16:28 51°14.005 2°55.451 350.6 0.1 189 -999
2007-04-20 08:17:28 51°14.004 2°55.452 350.2 -999 354 -999
2007-04-20 08:18:28 51°14.003 2°55.455 350.2 -999 344 -999
2007-04-20 08:19:28 51°14.004 2°55.451 350.1 -999 257 -999
2007-04-20 08:20:28 51°14.004 2°55.449 350 -999 59 -999
2007-04-20 08:21:28 51°14.005 2°55.449 349.9 -999 197 -999
2007-04-20 08:22:28 51°14.005 2°55.45 349.8 -999 96 -999
2007-04-20 08:23:28 51°14.005 2°55.451 349.8 -999 138 -999
2007-04-20 08:24:28 51°14.005 2°55.451 349.8 -999 89 -999
2007-04-20 08:25:28 51°14.005 2°55.451 349.6 -999 312 -999
2007-04-20 08:26:28 51°14.005 2°55.45 349.5 -999 304 -999
2007-04-20 08:27:28 51°14.005 2°55.45 349.4 -999 54 -999
2007-04-20 08:28:28 51°14.005 2°55.451 349.3 -999 259 -999
2007-04-20 08:29:28 51°14.005 2°55.45 349.2 0.1 244 -999
2007-04-20 08:30:28 51°14.005 2°55.451 349.1 -999 256 -999
2007-04-20 08:31:28 51°14.005 2°55.451 349.1 -999 260 -999
2007-04-20 08:32:28 51°14.005 2°55.451 349 -999 50 -999
2007-04-20 08:33:28 51°14.005 2°55.451 348.9 -999 254 -999
2007-04-20 08:34:28 51°14.004 2°55.451 348.8 -999 122 -999
2007-04-20 08:35:28 51°14.004 2°55.451 348.7 -999 138 -999
2007-04-20 08:36:28 51°14.005 2°55.452 348.6 -999 164 -999
2007-04-20 08:37:28 51°14.005 2°55.452 348.5 -999 203 -999
2007-04-20 08:38:28 51°14.005 2°55.452 348.4 -999 114 -999
2007-04-20 08:39:28 51°14.005 2°55.452 348.4 -999 131 -999
2007-04-20 08:40:28 51°14.005 2°55.451 348.3 -999 230 -999
2007-04-20 08:41:28 51°14.006 2°55.452 348.3 -999 33 -999
2007-04-20 08:42:28 51°14.006 2°55.452 348.3 -999 49 -999
2007-04-20 08:43:28 51°14.005 2°55.452 348.2 -999 236 -999
2007-04-20 08:44:28 51°14.005 2°55.453 348.2 -999 287 -999
2007-04-20 08:45:28 51°14.005 2°55.452 348.1 -999 51 -999
2007-04-20 08:46:28 51°14.005 2°55.452 348.5 0.2 104 -999
2007-04-20 08:47:28 51°14.005 2°55.452 347.8 -999 82 -999
2007-04-20 08:48:28 51°14.005 2°55.452 347.8 -999 225 -999
2007-04-20 08:49:28 51°14.005 2°55.452 347.8 -999 77 -999
2007-04-20 08:50:28 51°14.008 2°55.455 347.8 -999 76 -999
2007-04-20 08:51:28 51°14.005 2°55.451 347.7 -999 297 -999
2007-04-20 08:52:28 51°14.004 2°55.451 347.8 -999 275 -999
2007-04-20 08:53:28 51°14.003 2°55.449 347.8 -999 46 -999
2007-04-20 08:54:28 51°14.003 2°55.449 347.6 -999 273 -999
2007-04-20 08:55:28 51°14.002 2°55.448 347.6 -999 48 -999
2007-04-20 08:56:28 51°14.002 2°55.448 347.6 -999 55 -999
2007-04-20 08:57:28 51°14.001 2°55.448 347.7 -999 72 -999
2007-04-20 08:58:28 51°14.002 2°55.448 347.6 -999 76 -999
2007-04-20 08:59:28 51°14.003 2°55.448 347.7 -999 49 -999
2007-04-20 09:00:28 51°14.003 2°55.448 347.7 -999 249 -999
2007-04-20 09:01:28 51°14.004 2°55.45 347.7 -999 150 -999
2007-04-20 09:02:28 51°14.004 2°55.449 347.7 -999 11 -999
2007-04-20 09:03:28 51°14.006 2°55.452 347.7 -999 85 -999
2007-04-20 09:04:28 51°14.004 2°55.45 347.7 -999 19 -999
2007-04-20 09:05:28 51°14.004 2°55.45 347.7 -999 120 -999
2007-04-20 09:06:28 51°14.003 2°55.448 347.7 -999 75 -999
2007-04-20 09:07:28 51°14.003 2°55.448 347.7 -999 150 -999
2007-04-20 09:08:28 51°14.003 2°55.448 347.8 -999 211 -999
2007-04-20 09:09:28 51°14.003 2°55.449 347.8 -999 41 -999
2007-04-20 09:10:28 51°14.003 2°55.449 347.7 -999 263 -999
2007-04-20 09:11:28 51°14.004 2°55.451 347.8 -999 263 -999
2007-04-20 09:12:28 51°14.004 2°55.451 347.8 -999 95 -999
2007-04-20 09:13:28 51°14.004 2°55.451 347.9 -999 187 -999
2007-04-20 09:14:28 51°14.004 2°55.451 347.9 -999 127 -999
2007-04-20 09:15:28 51°14.004 2°55.451 348 -999 272 -999
2007-04-20 09:16:28 51°14.004 2°55.451 348.1 -999 74 -999
2007-04-20 09:17:28 51°14.004 2°55.45 348.2 -999 106 -999
2007-04-20 09:18:28 51°14.004 2°55.45 348.2 -999 26 -999
2007-04-20 09:19:28 51°14.004 2°55.45 348.3 -999 287 -999
2007-04-20 09:20:28 51°14.004 2°55.449 348.2 -999 81 -999
2007-04-20 09:21:28 51°14.004 2°55.449 348.5 -999 74 -999
2007-04-20 09:22:28 51°14.004 2°55.449 348.2 -999 241 -999
2007-04-20 09:23:28 51°14.004 2°55.45 348.2 -999 282 -999
2007-04-20 09:24:28 51°14.004 2°55.451 348.2 -999 245 -999
2007-04-20 09:25:28 51°14.005 2°55.451 348.3 -999 48 -999
2007-04-20 09:26:28 51°14.005 2°55.451 348.4 -999 279 -999
2007-04-20 09:27:28 51°14.004 2°55.451 348.4 -999 138 -999
2007-04-20 09:28:28 51°14.005 2°55.451 349.1 -999 47 -999
2007-04-20 09:29:28 51°14.005 2°55.451 348.9 -999 241 -999
2007-04-20 09:30:28 51°14.005 2°55.451 349 -999 2 -999
2007-04-20 09:31:28 51°14.005 2°55.451 349 -999 56 -999
2007-04-20 09:32:28 51°14.005 2°55.451 348.9 -999 94 -999
2007-04-20 09:33:28 51°14.005 2°55.451 348.8 -999 143 -999
2007-04-20 09:34:28 51°14.005 2°55.451 348.9 -999 222 -999
2007-04-20 09:35:28 51°14.006 2°55.451 349.1 -999 323 -999
2007-04-20 09:36:28 51°14.005 2°55.451 348.9 -999 279 -999
2007-04-20 09:37:28 51°14.005 2°55.451 348.8 -999 355 -999
2007-04-20 09:38:28 51°14.006 2°55.45 349.2 -999 72 -999
2007-04-20 09:39:28 51°14.005 2°55.451 349.1 -999 125 -999
2007-04-20 09:40:28 51°14.005 2°55.451 349.3 -999 273 -999
2007-04-20 09:41:28 51°14.004 2°55.451 349.2 -999 81 -999
2007-04-20 09:42:28 51°14.004 2°55.451 349.8 0.1 218 -999
2007-04-20 09:43:28 51°14.004 2°55.451 349.1 -999 240 -999
2007-04-20 09:44:28 51°14.004 2°55.451 349.3 -999 223 -999
2007-04-20 09:45:28 51°14.004 2°55.451 349.1 -999 231 -999
2007-04-20 09:46:28 51°14.004 2°55.451 349.3 0.1 200 -999
2007-04-20 09:47:28 51°14.004 2°55.451 348.7 -999 258 -999
2007-04-20 09:48:28 51°14.005 2°55.451 349.5 0.1 44 -999
2007-04-20 09:49:28 51°14.004 2°55.451 349.5 -999 209 -999
2007-04-20 09:50:28 51°14.004 2°55.451 349 -999 175 -999
2007-04-20 09:51:28 51°14.005 2°55.451 348.9 -999 11 -999
2007-04-20 09:52:28 51°14.005 2°55.451 349.1 -999 55 -999
2007-04-20 09:53:28 51°14.005 2°55.451 348.8 -999 88 -999
2007-04-20 09:54:28 51°14.005 2°55.451 348.7 -999 295 -999
2007-04-20 09:55:28 51°14.005 2°55.451 348.9 -999 12 -999
2007-04-20 09:56:28 51°14.004 2°55.451 349 -999 176 -999
2007-04-20 09:57:28 51°14.004 2°55.451 348.7 -999 92 -999
2007-04-20 09:58:28 51°14.004 2°55.451 348.7 -999 353 -999
2007-04-20 09:59:28 51°14.004 2°55.451 349 -999 57 -999
2007-04-20 10:00:28 51°14.004 2°55.451 348.5 -999 244 -999
2007-04-20 10:01:28 51°14.004 2°55.451 348.6 -999 215 -999
2007-04-20 10:02:28 51°14.004 2°55.451 348.6 -999 54 -999
2007-04-20 10:03:28 51°14.004 2°55.45 348.6 -999 345 -999
2007-04-20 10:04:28 51°14.004 2°55.45 348.5 -999 196 -999
2007-04-20 10:05:28 51°14.005 2°55.451 348.5 -999 142 -999
2007-04-20 10:06:28 51°14.005 2°55.451 348.6 0.1 178 -999
2007-04-20 10:07:28 51°14.005 2°55.451 348.7 -999 31 -999
2007-04-20 10:08:28 51°14.005 2°55.451 349.3 0.3 344 -999
2007-04-20 10:09:28 51°14.004 2°55.451 347.6 -999 7 -999
2007-04-20 10:10:28 51°14.004 2°55.451 348.3 -999 282 -999
2007-04-20 10:11:28 51°14.004 2°55.45 348.3 -999 312 -999
2007-04-20 10:12:28 51°14.004 2°55.45 348.1 -999 243 -999
2007-04-20 10:13:28 51°14.004 2°55.451 350.1 0.1 167 -999
2007-04-20 10:14:28 51°14.003 2°55.45 348.3 -999 297 -999
2007-04-20 10:15:28 51°14.003 2°55.45 348.5 -999 184 -999
2007-04-20 10:16:28 51°14.003 2°55.45 348.7 -999 291 -999
2007-04-20 10:17:28 51°14.01 2°55.455 348.8 0.1 45 -999
2007-04-20 10:18:28 51°14.004 2°55.451 348.7 -999 17 -999
2007-04-20 10:19:28 51°14.004 2°55.45 348.9 -999 263 -999
2007-04-20 10:20:28 51°14.004 2°55.45 348.6 -999 323 -999
2007-04-20 10:21:28 51°14.002 2°55.449 348.6 -999 229 -999
2007-04-20 10:22:28 51°13.999 2°55.447 348.7 0.1 10 -999
2007-04-20 10:23:28 51°14.005 2°55.451 348.7 -999 61 -999
2007-04-20 10:24:28 51°14.005 2°55.451 348.9 -999 277 -999
2007-04-20 10:25:28 51°14.006 2°55.451 348.9 -999 315 -999
2007-04-20 10:26:28 51°14.005 2°55.451 348.9 0.1 233 -999
2007-04-20 10:27:28 51°14.006 2°55.451 349 -999 190 -999
2007-04-20 10:28:28 51°14.005 2°55.451 348.9 -999 119 -999
2007-04-20 10:29:28 51°14.005 2°55.451 349 -999 168 -999
2007-04-20 10:30:28 51°14.005 2°55.451 349 -999 147 -999
2007-04-20 10:31:28 51°14.005 2°55.451 349 -999 250 -999
2007-04-20 10:32:28 51°14.005 2°55.451 349 -999 241 -999
2007-04-20 10:33:28 51°14.005 2°55.451 349 -999 330 -999
2007-04-20 10:34:28 51°14.005 2°55.45 349 -999 356 -999
2007-04-20 10:35:28 51°14.005 2°55.451 349 0.1 329 -999
2007-04-20 10:36:28 51°14.004 2°55.451 349 -999 213 -999
2007-04-20 10:37:28 51°14.004 2°55.451 349 -999 2 -999
2007-04-20 10:38:28 51°14.005 2°55.451 349 -999 116 -999
2007-04-20 10:39:28 51°14.004 2°55.449 349 0.1 45 -999
2007-04-20 10:40:28 51°14.005 2°55.448 349 -999 310 -999
2007-04-20 10:41:28 51°14.006 2°55.448 349 -999 253 -999
2007-04-20 10:42:28 51°14.005 2°55.449 348.9 -999 120 -999
2007-04-20 10:43:28 51°14.005 2°55.45 348.9 -999 145 -999
2007-04-20 10:44:28 51°14.006 2°55.45 348.9 -999 302 -999
2007-04-20 10:45:28 51°14.006 2°55.45 348.9 -999 316 -999
2007-04-20 10:46:28 51°14.005 2°55.45 348.9 -999 45 -999
2007-04-20 10:47:28 51°14.005 2°55.45 348.9 -999 67 -999
2007-04-20 10:48:28 51°14.013 2°55.451 348.9 -999 64 -999
2007-04-20 10:49:28 51°14.006 2°55.45 348.9 -999 330 -999
2007-04-20 10:50:28 51°14.005 2°55.448 348.9 -999 284 -999
2007-04-20 10:51:28 51°14.007 2°55.45 348.9 -999 91 -999
2007-04-20 10:52:28 51°14.004 2°55.451 348.9 0.1 42 -999
2007-04-20 10:53:28 51°14.001 2°55.451 348.9 -999 84 -999
2007-04-20 10:54:28 51°14.001 2°55.451 348.9 0.1 270 -999
2007-04-20 10:55:28 51°14.003 2°55.452 348.9 -999 73 -999
2007-04-20 10:56:28 51°14.003 2°55.452 348.9 -999 2 -999
2007-04-20 10:57:28 51°14.003 2°55.45 348.9 0.1 85 -999
2007-04-20 10:58:28 51°14.004 2°55.451 348.9 0.1 241 -999
2007-04-20 10:59:28 51°14.003 2°55.452 348.9 -999 318 -999
2007-04-20 11:00:28 51°14.002 2°55.451 348.9 -999 54 -999
2007-04-20 11:01:28 51°14.003 2°55.449 348.9 -999 244 -999
2007-04-20 11:02:28 51°14.004 2°55.448 348.9 -999 70 -999
2007-04-20 11:03:28 51°14.004 2°55.447 348.9 -999 256 -999
2007-04-20 11:04:28 51°14.004 2°55.447 348.9 0.1 74 -999
2007-04-20 11:05:28 51°14.004 2°55.446 348.9 -999 315 -999
2007-04-20 11:06:28 51°14.004 2°55.446 348.9 0.1 246 -999
2007-04-20 11:07:28 51°14.004 2°55.446 348.9 -999 98 -999
2007-04-20 11:08:28 51°14.005 2°55.448 348.9 -999 77 -999
2007-04-20 11:09:28 51°14.004 2°55.448 348.9 -999 223 -999
2007-04-20 11:10:28 51°14.004 2°55.449 348.9 0.1 267 -999
2007-04-20 11:11:28 51°14.004 2°55.45 348.9 -999 32 -999
2007-04-20 11:12:28 51°14.004 2°55.45 348.9 -999 300 -999
2007-04-20 11:13:28 51°14.004 2°55.451 348.9 0.1 92 -999
2007-04-20 11:14:28 51°14.004 2°55.452 348.9 0.1 87 -999
2007-04-20 11:15:28 51°14.004 2°55.449 349 -999 104 -999
2007-04-20 11:16:28 51°14.004 2°55.449 349 0.1 83 -999
2007-04-20 11:17:28 51°14.004 2°55.448 349 0.1 48 -999
2007-04-20 11:18:28 51°14.004 2°55.448 349 -999 42 -999
2007-04-20 11:19:28 51°14.004 2°55.447 349.1 -999 28 -999
2007-04-20 11:20:28 51°14.004 2°55.447 349.1 -999 48 -999
2007-04-20 11:21:28 51°14.004 2°55.446 349 0.1 53 -999
2007-04-20 11:22:28 51°14.004 2°55.447 349 -999 56 -999
2007-04-20 11:23:28 51°14.004 2°55.448 349 0.1 241 -999
2007-04-20 11:24:28 51°14.005 2°55.448 349.1 0.1 55 -999
2007-04-20 11:25:28 51°14.005 2°55.448 349.1 -999 270 -999
2007-04-20 11:26:28 51°14.005 2°55.448 349.1 -999 77 -999
2007-04-20 11:27:28 51°14.005 2°55.446 349.1 -999 102 -999
2007-04-20 11:28:28 51°14.005 2°55.445 349.2 0.1 244 -999
2007-04-20 11:29:28 51°14.005 2°55.445 349.2 -999 235 -999
2007-04-20 11:30:28 51°14.005 2°55.443 349.3 0.1 58 -999
2007-04-20 11:31:28 51°14.005 2°55.441 349.4 -999 278 -999
2007-04-20 11:32:28 51°14.005 2°55.441 349.4 0.1 56 -999
2007-04-20 11:33:28 51°14.005 2°55.441 349.4 -999 310 -999
2007-04-20 11:34:28 51°14.005 2°55.441 349.5 0.1 256 -999
2007-04-20 11:35:28 51°14.005 2°55.441 349.4 -999 40 -999
2007-04-20 11:36:28 51°14.005 2°55.442 349.4 -999 258 -999
2007-04-20 11:37:28 51°14.005 2°55.444 349.4 -999 241 -999
2007-04-20 11:38:28 51°14.005 2°55.445 349.5 -999 349 -999
2007-04-20 11:39:28 51°14.004 2°55.446 349.3 0.1 91 -999
2007-04-20 11:40:28 51°14.004 2°55.447 349.2 -999 50 5.9
2007-04-20 11:41:28 51°14.004 2°55.447 349.2 0.1 238 5.9
2007-04-20 11:43:28 51°14.005 2°55.45 349.2 -999 99 5.9
2007-04-20 11:44:28 51°14.005 2°55.45 349.2 -999 332 5.9
2007-04-20 11:45:28 51°14.005 2°55.45 349.2 -999 340 5.9
2007-04-20 11:46:28 51°14.006 2°55.45 349.2 -999 157 6
2007-04-20 11:47:28 51°14.005 2°55.45 349.2 -999 218 5.9
2007-04-20 11:48:28 51°14.005 2°55.451 349.2 -999 117 6
2007-04-20 11:49:28 51°14.005 2°55.451 351.2 0.2 201 6.1
2007-04-20 11:50:28 51°14.005 2°55.45 349.1 -999 133 6
2007-04-20 11:51:28 51°14.005 2°55.45 349.1 -999 136 6.1
2007-04-20 11:52:28 51°14.005 2°55.45 349.1 -999 356 6.1
2007-04-20 11:53:28 51°14.005 2°55.45 349.1 -999 332 6.2
2007-04-20 11:54:28 51°14.006 2°55.45 348.4 0.1 166 6.1
2007-04-20 11:55:28 51°14.007 2°55.452 335.5 0.1 44 6.5
2007-04-20 11:56:28 51°13.998 2°55.467 318.4 2.2 140 -999
2007-04-20 11:57:28 51°13.964 2°55.537 297.1 4.3 117 -999
2007-04-20 11:58:28 51°13.941 2°55.635 281.3 2 114 -999
2007-04-20 11:59:28 51°13.916 2°55.605 219.9 2.5 211 -999
2007-04-20 12:16:39 51°13.909 2°55.601 125.5 -999 -999 5.8